createdAt,value
2018-04-15T00:01:08.744Z,114.07
2018-04-15T00:03:37.873Z,117.45
2018-04-15T00:06:06.252Z,112.05
2018-04-15T00:08:34.638Z,117.70
2018-04-15T00:11:03.003Z,120.10
2018-04-15T00:13:31.501Z,119.10
2018-04-15T00:15:59.887Z,124.32
2018-04-15T00:18:28.420Z,129.70
2018-04-15T00:20:56.936Z,123.47
2018-04-15T00:23:25.383Z,121.07
2018-04-15T00:25:53.900Z,118.68
2018-04-15T00:28:22.756Z,116.30
2018-04-15T00:30:51.150Z,113.93
2018-04-15T00:33:19.631Z,141.23
2018-04-15T00:35:48.176Z,126.62
2018-04-15T00:38:16.509Z,114.62
2018-04-15T00:40:44.896Z,130.43
2018-04-15T00:43:13.985Z,109.47
2018-04-15T00:45:42.387Z,109.35
2018-04-15T00:48:10.755Z,110.82
2018-04-15T00:50:39.811Z,123.00
2018-04-15T00:53:08.219Z,116.82
2018-04-15T00:55:36.598Z,126.03
2018-04-15T00:58:05.361Z,118.07
2018-04-15T01:00:33.955Z,108.00
2018-04-15T01:03:02.393Z,114.57
2018-04-15T01:05:30.920Z,125.20
2018-04-15T01:07:59.373Z,130.30
2018-04-15T01:10:27.771Z,113.93
2018-04-15T01:12:56.472Z,118.22
2018-04-15T01:15:24.884Z,132.60
2018-04-15T01:17:53.287Z,128.27
2018-04-15T01:20:22.171Z,114.43
2018-04-15T01:22:50.635Z,128.40
2018-04-15T01:25:19.039Z,112.47
2018-04-15T01:27:49.165Z,120.72
2018-04-15T01:30:17.549Z,122.97
2018-04-15T01:32:45.925Z,117.82
2018-04-15T01:35:14.337Z,114.70
2018-04-15T01:37:42.679Z,120.13
2018-04-15T01:40:11.060Z,120.47
2018-04-15T01:42:39.468Z,113.95
2018-04-15T01:45:07.890Z,116.12
2018-04-15T01:47:36.284Z,114.45
2018-04-15T01:50:05.285Z,117.95
2018-04-15T01:52:33.914Z,115.25
2018-04-15T01:55:02.325Z,108.85
2018-04-15T01:57:30.829Z,108.32
2018-04-15T01:59:59.252Z,118.87
2018-04-15T02:02:29.462Z,125.07
2018-04-15T02:04:58.688Z,120.25
2018-04-15T02:07:27.140Z,127.50
2018-04-15T02:09:55.733Z,120.18
2018-04-15T02:12:25.029Z,116.72
2018-04-15T02:14:53.517Z,111.22
2018-04-15T02:17:21.924Z,128.32
2018-04-15T02:19:51.886Z,117.50
2018-04-15T02:22:20.273Z,115.03
2018-04-15T02:24:49.394Z,117.80
2018-04-15T02:27:17.864Z,116.68
2018-04-15T02:29:46.327Z,114.80
2018-04-15T02:32:14.903Z,121.35
2018-04-15T02:34:43.305Z,109.00
2018-04-15T02:37:12.637Z,120.30
2018-04-15T02:39:40.991Z,120.57
2018-04-15T02:42:09.387Z,130.70
2018-04-15T02:44:37.752Z,117.80
2018-04-15T02:47:06.132Z,121.28
2018-04-15T02:49:34.534Z,126.07
2018-04-15T02:52:02.920Z,109.82
2018-04-15T02:54:32.272Z,116.00
2018-04-15T02:57:00.706Z,120.35
2018-04-15T02:59:29.143Z,117.97
2018-04-15T03:01:57.580Z,130.32
2018-04-15T03:04:26.060Z,112.18
2018-04-15T03:06:54.746Z,122.15
2018-04-15T03:09:23.179Z,114.20
2018-04-15T03:11:51.643Z,114.30
2018-04-15T03:14:20.188Z,127.32
2018-04-15T03:16:48.606Z,110.10
2018-04-15T03:19:17.491Z,111.65
2018-04-15T03:21:45.886Z,105.65
2018-04-15T03:24:14.352Z,109.10
2018-04-15T03:26:42.808Z,102.90
2018-04-15T03:29:11.171Z,117.72
2018-04-15T03:31:41.450Z,104.12
2018-04-15T03:34:10.110Z,105.20
2018-04-15T03:36:38.494Z,99.70
2018-04-15T03:39:06.885Z,96.37
2018-04-15T03:41:35.395Z,100.62
2018-04-15T03:44:03.745Z,101.55
2018-04-15T03:46:32.230Z,106.78
2018-04-15T03:49:01.036Z,96.07
2018-04-15T03:51:29.408Z,100.43
2018-04-15T03:53:57.776Z,115.55
2018-04-15T03:56:26.214Z,98.20
2018-04-15T03:58:54.634Z,98.57
2018-04-15T04:01:23.073Z,97.12
2018-04-15T04:03:53.499Z,98.05
2018-04-15T04:06:21.916Z,100.53
2018-04-15T04:08:50.362Z,98.68
2018-04-15T04:11:19.251Z,113.45
2018-04-15T04:13:47.687Z,100.62
2018-04-15T04:16:16.424Z,103.07
2018-04-15T04:18:57.038Z,96.55
2018-04-15T04:21:37.289Z,96.97
2018-04-15T04:24:17.802Z,103.32
2018-04-15T04:26:46.176Z,114.72
2018-04-15T04:29:14.970Z,120.32
2018-04-15T04:31:43.483Z,121.47
2018-04-15T04:34:11.849Z,106.63
2018-04-15T04:36:40.374Z,98.70
2018-04-15T04:39:08.897Z,108.72
2018-04-15T04:41:37.273Z,104.78
2018-04-15T04:44:05.621Z,97.47
2018-04-15T04:46:35.921Z,99.22
2018-04-15T04:49:04.271Z,96.85
2018-04-15T04:51:32.636Z,99.10
2018-04-15T04:54:01.107Z,96.85
2018-04-15T04:56:29.604Z,93.53
2018-04-15T04:58:58.218Z,102.15
2018-04-15T05:01:27.036Z,114.37
2018-04-15T05:03:55.698Z,97.82
2018-04-15T05:06:24.106Z,93.55
2018-04-15T05:08:52.563Z,90.43
2018-04-15T05:11:21.044Z,98.30
2018-04-15T05:13:49.443Z,91.47
2018-04-15T05:16:17.936Z,96.78
2018-04-15T05:18:46.297Z,84.78
2018-04-15T05:21:14.675Z,91.43
2018-04-15T05:23:43.557Z,82.25
2018-04-15T05:26:11.909Z,84.20
2018-04-15T05:28:40.286Z,83.40
2018-04-15T05:31:08.663Z,80.97
2018-04-15T05:33:37.047Z,83.43
2018-04-15T05:36:05.541Z,82.72
2018-04-15T05:38:33.938Z,74.32
2018-04-15T05:41:02.325Z,73.60
2018-04-15T05:43:30.704Z,81.30
2018-04-15T05:45:59.140Z,78.45
2018-04-15T05:48:27.525Z,70.25
2018-04-15T05:50:56.029Z,78.25
2018-04-15T05:53:24.435Z,71.95
2018-04-15T05:55:52.966Z,76.87
2018-04-15T05:58:21.383Z,71.70
2018-04-15T06:00:50.059Z,75.95
2018-04-15T06:03:18.509Z,67.53
2018-04-15T06:05:46.864Z,62.58
2018-04-15T06:08:15.374Z,69.47
2018-04-15T06:10:43.777Z,60.25
2018-04-15T06:13:12.132Z,65.18
2018-04-15T06:15:41.312Z,63.63
2018-04-15T06:18:09.678Z,60.63
2018-04-15T06:20:38.058Z,66.07
2018-04-15T06:23:06.533Z,56.63
2018-04-15T06:25:34.948Z,53.97
2018-04-15T06:28:03.310Z,54.40
2018-04-15T06:30:31.792Z,50.53
2018-04-15T06:33:00.244Z,51.63
2018-04-15T06:35:28.618Z,50.92
2018-04-15T06:37:57.042Z,48.13
2018-04-15T06:40:25.628Z,53.63
2018-04-15T06:42:54.145Z,47.40
2018-04-15T06:45:23.484Z,47.78
2018-04-15T06:47:51.910Z,44.40
2018-04-15T06:50:20.304Z,45.40
2018-04-15T06:52:48.784Z,42.80
2018-04-15T06:55:17.147Z,45.10
2018-04-15T06:57:45.510Z,40.17
2018-04-15T07:00:13.888Z,41.20
2018-04-15T07:02:42.266Z,43.87
2018-04-15T07:05:10.632Z,48.20
2018-04-15T07:07:39.020Z,46.43
2018-04-15T07:10:07.386Z,45.50
2018-04-15T07:12:35.853Z,44.00
2018-04-15T07:15:04.705Z,43.17
2018-04-15T07:17:33.147Z,41.73
2018-04-15T07:20:01.544Z,41.53
2018-04-15T07:22:30.461Z,41.37
2018-04-15T07:24:58.888Z,37.97
2018-04-15T07:27:27.337Z,47.13
2018-04-15T07:29:56.530Z,42.57
2018-04-15T07:32:25.173Z,46.60
2018-04-15T07:34:53.598Z,39.10
2018-04-15T07:37:22.191Z,35.77
2018-04-15T07:39:50.602Z,33.30
2018-04-15T07:42:18.990Z,37.10
2018-04-15T07:44:48.293Z,37.00
2018-04-15T07:47:16.651Z,38.27
2018-04-15T07:49:45.038Z,42.30
2018-04-15T07:52:13.471Z,34.90
2018-04-15T07:54:41.870Z,38.27
2018-04-15T07:57:10.221Z,37.73
2018-04-15T07:59:38.729Z,37.17
2018-04-15T08:02:07.087Z,37.97
2018-04-15T08:04:35.468Z,43.30
2018-04-15T08:07:06.019Z,40.20
2018-04-15T08:09:34.416Z,33.27
2018-04-15T08:12:02.776Z,35.50
2018-04-15T08:14:31.172Z,33.83
2018-04-15T08:16:59.800Z,36.77
2018-04-15T08:19:28.180Z,33.83
2018-04-15T08:21:56.991Z,37.33
2018-04-15T08:24:25.488Z,40.07
2018-04-15T08:26:53.957Z,31.47
2018-04-15T08:29:22.812Z,35.30
2018-04-15T08:31:51.311Z,35.63
2018-04-15T08:34:24.536Z,33.13
2018-04-15T08:36:53.069Z,30.17
2018-04-15T08:39:21.552Z,32.43
2018-04-15T08:41:49.976Z,37.40
2018-04-15T08:44:18.558Z,31.53
2018-04-15T08:46:46.983Z,36.60
2018-04-15T08:49:15.390Z,36.00
2018-04-15T08:51:43.793Z,31.33
2018-04-15T08:54:12.164Z,37.20
2018-04-15T08:56:40.688Z,36.30
2018-04-15T08:59:09.129Z,34.97
2018-04-15T09:01:37.495Z,35.90
2018-04-15T09:04:08.954Z,33.03
2018-04-15T09:06:37.348Z,39.47
2018-04-15T09:09:05.884Z,38.10
2018-04-15T09:11:34.584Z,32.10
2018-04-15T09:14:02.953Z,50.80
2018-04-15T09:16:31.376Z,39.83
2018-04-15T09:19:00.875Z,40.33
2018-04-15T09:21:29.396Z,36.03
2018-04-15T09:23:58.161Z,40.87
2018-04-15T09:26:26.628Z,39.97
2018-04-15T09:28:55.142Z,38.70
2018-04-15T09:31:23.542Z,38.17
2018-04-15T09:33:52.392Z,37.03
2018-04-15T09:36:20.817Z,41.17
2018-04-15T09:38:49.286Z,40.63
2018-04-15T09:41:18.821Z,37.87
2018-04-15T09:43:47.187Z,41.93
2018-04-15T09:46:15.616Z,44.13
2018-04-15T09:48:44.936Z,39.50
2018-04-15T09:51:13.298Z,41.10
2018-04-15T09:53:41.675Z,42.53
2018-04-15T09:56:10.514Z,43.53
2018-04-15T09:58:38.958Z,44.20
2018-04-15T10:01:07.344Z,43.77
2018-04-15T10:03:36.607Z,45.80
2018-04-15T10:06:04.950Z,48.10
2018-04-15T10:08:33.291Z,39.30
2018-04-15T10:11:02.085Z,45.57
2018-04-15T10:13:30.644Z,43.93
2018-04-15T10:15:59.922Z,42.63
2018-04-15T10:18:28.731Z,43.37
2018-04-15T10:20:57.336Z,47.90
2018-04-15T10:23:25.762Z,42.20
2018-04-15T10:25:54.592Z,43.67
2018-04-15T10:28:23.028Z,47.53
2018-04-15T10:30:51.757Z,49.43
2018-04-15T10:33:20.815Z,51.00
2018-04-15T10:35:49.482Z,54.33
2018-04-15T10:38:18.188Z,52.83
2018-04-15T10:40:46.640Z,46.90
2018-04-15T10:43:15.002Z,54.60
2018-04-15T10:45:43.483Z,52.67
2018-04-15T10:48:11.955Z,61.20
2018-04-15T10:50:40.308Z,50.53
2018-04-15T10:53:08.705Z,64.90
2018-04-15T10:55:38.046Z,60.30
2018-04-15T10:58:07.440Z,60.00
2018-04-15T11:00:35.947Z,50.70
2018-04-15T11:03:04.447Z,60.90
2018-04-15T11:05:32.812Z,54.87
2018-04-15T11:08:01.493Z,51.00
2018-04-15T11:10:30.336Z,53.50
2018-04-15T11:12:59.134Z,57.77
2018-04-15T11:15:27.678Z,62.80
2018-04-15T11:17:56.634Z,58.87
2018-04-15T11:20:27.971Z,62.93
2018-04-15T11:22:56.606Z,66.17
2018-04-15T11:25:25.425Z,55.77
2018-04-15T11:27:54.025Z,71.37
2018-04-15T11:30:22.481Z,66.30
2018-04-15T11:32:52.707Z,64.27
2018-04-15T11:35:21.291Z,80.80
2018-04-15T11:37:49.733Z,66.20
2018-04-15T11:40:18.438Z,67.87
2018-04-15T11:42:46.797Z,67.93
2018-04-15T11:45:15.300Z,77.83
2018-04-15T11:47:43.660Z,76.23
2018-04-15T11:50:12.033Z,72.87
2018-04-15T11:52:40.435Z,76.50
2018-04-15T11:55:08.841Z,74.00
2018-04-15T11:57:37.440Z,81.37
2018-04-15T12:00:05.967Z,69.97
2018-04-15T12:02:34.344Z,80.87
2018-04-15T12:05:02.838Z,84.83
2018-04-15T12:07:31.363Z,89.27
2018-04-15T12:10:00.079Z,80.77
2018-04-15T12:12:28.569Z,83.40
2018-04-15T12:14:57.014Z,77.93
2018-04-15T12:17:26.168Z,78.13
2018-04-15T12:19:54.715Z,81.33
2018-04-15T12:22:23.170Z,65.00
2018-04-15T12:24:52.981Z,73.53
2018-04-15T12:27:21.548Z,73.77
2018-04-15T12:29:49.972Z,87.77
2018-04-15T12:32:18.431Z,79.10
2018-04-15T12:34:47.116Z,80.10
2018-04-15T12:37:15.635Z,80.97
2018-04-15T12:39:44.088Z,84.57
2018-04-15T12:42:12.445Z,86.33
2018-04-15T12:44:40.798Z,82.17
2018-04-15T12:47:09.187Z,81.83
2018-04-15T12:49:37.545Z,73.13
2018-04-15T12:52:05.917Z,80.87
2018-04-15T12:54:34.580Z,82.67
2018-04-15T12:57:03.020Z,75.47
2018-04-15T12:59:31.413Z,82.70
2018-04-15T13:02:00.022Z,77.80
2018-04-15T13:04:28.397Z,71.90
2018-04-15T13:06:56.857Z,77.17
2018-04-15T13:09:25.692Z,85.70
2018-04-15T13:11:54.312Z,81.95
2018-04-15T13:14:22.775Z,93.53
2018-04-15T13:16:51.194Z,79.77
2018-04-15T13:19:19.788Z,82.37
2018-04-15T13:21:48.349Z,68.27
2018-04-15T13:24:17.343Z,82.63
2018-04-15T13:26:45.705Z,82.87
2018-04-15T13:29:14.080Z,72.50
2018-04-15T13:31:42.464Z,84.77
2018-04-15T13:34:10.846Z,80.13
2018-04-15T13:36:39.248Z,89.70
2018-04-15T13:39:07.649Z,89.80
2018-04-15T13:41:36.142Z,94.70
2018-04-15T13:44:04.546Z,88.27
2018-04-15T13:46:32.929Z,84.10
2018-04-15T13:49:01.368Z,84.23
2018-04-15T13:51:29.967Z,81.93
2018-04-15T13:53:58.522Z,74.73
2018-04-15T13:56:26.897Z,83.20
2018-04-15T13:58:55.401Z,88.73
2018-04-15T14:01:24.077Z,80.90
2018-04-15T14:03:52.853Z,76.57
2018-04-15T14:06:21.361Z,81.50
2018-04-15T14:08:49.836Z,75.57
2018-04-15T14:11:18.380Z,79.10
2018-04-15T14:13:46.771Z,82.47
2018-04-15T14:16:15.240Z,75.20
2018-04-15T14:18:43.645Z,67.13
2018-04-15T14:21:12.029Z,81.83
2018-04-15T14:23:41.148Z,69.07
2018-04-15T14:26:09.508Z,70.97
2018-04-15T14:28:37.855Z,81.37
2018-04-15T14:31:06.510Z,80.00
2018-04-15T14:33:34.892Z,78.00
2018-04-15T14:36:03.263Z,74.83
2018-04-15T14:38:32.136Z,70.13
2018-04-15T14:41:00.577Z,70.90
2018-04-15T14:43:29.080Z,70.17
2018-04-15T14:45:57.551Z,70.78
2018-04-15T14:48:26.211Z,78.00
2018-04-15T14:50:54.583Z,61.63
2018-04-15T14:53:23.542Z,65.63
2018-04-15T14:55:52.137Z,62.53
2018-04-15T14:58:20.829Z,69.20
2018-04-15T15:00:49.572Z,63.00
2018-04-15T15:03:18.020Z,91.07
2018-04-15T15:05:46.455Z,88.50
2018-04-15T15:08:14.867Z,74.37
2018-04-15T15:10:43.205Z,80.17
2018-04-15T15:13:11.589Z,78.63
2018-04-15T15:15:40.958Z,74.63
2018-04-15T15:18:09.488Z,72.77
2018-04-15T15:20:37.949Z,69.00
2018-04-15T15:23:06.522Z,83.00
2018-04-15T15:25:34.928Z,82.53
2018-04-15T15:28:03.313Z,75.97
2018-04-15T15:30:32.421Z,71.60
2018-04-15T15:33:00.895Z,73.53
2018-04-15T15:35:29.271Z,74.60
2018-04-15T15:37:58.187Z,79.97
2018-04-15T15:40:26.636Z,77.60
2018-04-15T15:42:54.995Z,82.53
2018-04-15T15:45:24.821Z,73.67
2018-04-15T15:47:53.754Z,81.80
2018-04-15T15:50:22.337Z,74.40
2018-04-15T15:52:51.728Z,74.80
2018-04-15T15:55:20.546Z,86.17
2018-04-15T15:57:49.008Z,80.73
2018-04-15T16:00:19.265Z,86.00
2018-04-15T16:02:48.298Z,84.93
2018-04-15T16:05:16.757Z,83.07
2018-04-15T16:07:45.116Z,90.17
2018-04-15T16:10:13.481Z,96.83
2018-04-15T16:12:41.902Z,84.50
2018-04-15T16:15:10.285Z,94.33
2018-04-15T16:17:38.666Z,88.27
2018-04-15T16:20:07.056Z,89.90
2018-04-15T16:22:37.193Z,93.50
2018-04-15T16:25:05.803Z,94.47
2018-04-15T16:27:34.347Z,88.70
2018-04-15T16:30:03.556Z,83.07
2018-04-15T16:32:32.318Z,92.77
2018-04-15T16:35:01.022Z,98.77
2018-04-15T16:37:29.762Z,97.50
2018-04-15T16:39:58.580Z,85.33
2018-04-15T16:42:27.001Z,86.73
2018-04-15T16:44:55.810Z,89.43
2018-04-15T16:47:24.328Z,81.97
2018-04-15T16:49:52.808Z,83.87
2018-04-15T16:52:22.837Z,83.53
2018-04-15T16:54:51.524Z,84.43
2018-04-15T16:57:20.335Z,88.63
2018-04-15T16:59:49.258Z,88.27
2018-04-15T17:02:18.453Z,85.67
2018-04-15T17:04:47.178Z,84.87
2018-04-15T17:07:15.732Z,78.50
2018-04-15T17:09:44.213Z,78.70
2018-04-15T17:12:12.561Z,93.80
2018-04-15T17:14:41.672Z,78.83
2018-04-15T17:17:10.040Z,72.93
2018-04-15T17:19:38.574Z,81.40
2018-04-15T17:22:07.135Z,85.67
2018-04-15T17:24:35.571Z,77.73
2018-04-15T17:27:04.225Z,78.60
2018-04-15T17:29:32.765Z,72.93
2018-04-15T17:32:01.568Z,73.97
2018-04-15T17:34:30.053Z,91.80
2018-04-15T17:36:58.867Z,87.93
2018-04-15T17:39:27.312Z,76.87
2018-04-15T17:41:55.984Z,82.77
2018-04-15T17:44:24.615Z,75.77
2018-04-15T17:46:53.182Z,92.83
2018-04-15T17:49:22.611Z,72.10
2018-04-15T17:51:52.004Z,68.23
2018-04-15T17:54:20.676Z,95.77
2018-04-15T17:56:49.825Z,75.20
2018-04-15T17:59:19.613Z,87.17
2018-04-15T18:01:48.348Z,79.80
2018-04-15T18:04:16.733Z,72.10
2018-04-15T18:06:45.193Z,80.18
2018-04-15T18:09:13.650Z,90.85
2018-04-15T18:11:42.168Z,78.62
2018-04-15T18:14:10.652Z,75.75
2018-04-15T18:16:39.239Z,76.62
2018-04-15T18:19:07.683Z,81.22
2018-04-15T18:21:36.450Z,74.60
2018-04-15T18:24:04.730Z,81.55
2018-04-15T18:26:33.403Z,77.60
2018-04-15T18:29:02.970Z,91.60
2018-04-15T18:31:31.521Z,77.97
2018-04-15T18:34:00.136Z,76.23
2018-04-15T18:36:29.341Z,83.12
2018-04-15T18:38:58.167Z,78.70
2018-04-15T18:41:26.773Z,80.95
2018-04-15T18:43:56.215Z,81.20
2018-04-15T18:46:24.694Z,77.93
2018-04-15T18:48:53.223Z,88.37
2018-04-15T18:51:21.874Z,85.62
2018-04-15T18:53:50.493Z,91.60
2018-04-15T18:56:19.010Z,108.00
2018-04-15T18:58:47.691Z,98.10
2018-04-15T19:01:16.073Z,94.07
2018-04-15T19:03:44.464Z,95.62
2018-04-15T19:06:12.965Z,94.18
2018-04-15T19:08:41.361Z,90.25
2018-04-15T19:11:09.805Z,95.32
2018-04-15T19:13:38.826Z,110.03
2018-04-15T19:16:07.383Z,116.93
2018-04-15T19:18:35.928Z,115.00
2018-04-15T19:21:04.481Z,118.65
2018-04-15T19:23:32.985Z,116.18
2018-04-15T19:26:01.448Z,121.57
2018-04-15T19:28:30.460Z,126.30
2018-04-15T19:30:59.033Z,122.47
2018-04-15T19:33:27.486Z,124.93
2018-04-15T19:35:56.874Z,129.30
2018-04-15T19:38:25.431Z,120.78
2018-04-15T19:40:54.198Z,111.75
2018-04-15T19:43:22.940Z,111.45
2018-04-15T19:45:51.426Z,120.93
2018-04-15T19:48:20.557Z,115.40
2018-04-15T19:50:49.510Z,111.57
2018-04-15T19:53:18.362Z,113.68
2018-04-15T19:55:46.733Z,107.72
2018-04-15T19:58:15.364Z,105.00
2018-04-15T20:00:43.875Z,100.93
2018-04-15T20:03:12.274Z,110.80
2018-04-15T20:05:41.507Z,114.07
2018-04-15T20:08:10.168Z,114.93
2018-04-15T20:10:38.615Z,130.70
2018-04-15T20:13:07.965Z,129.50
2018-04-15T20:15:37.363Z,116.18
2018-04-15T20:18:05.916Z,116.47
2018-04-15T20:20:35.000Z,108.93
2018-04-15T20:23:03.429Z,111.75
2018-04-15T20:25:31.927Z,102.50
2018-04-15T20:28:01.785Z,115.97
2018-04-15T20:30:30.374Z,105.60
2018-04-15T20:32:59.268Z,107.12
2018-04-15T20:35:28.578Z,106.00
2018-04-15T20:37:57.190Z,113.07
2018-04-15T20:40:25.706Z,124.85
2018-04-15T20:42:55.278Z,109.95
2018-04-15T20:45:23.721Z,119.53
2018-04-15T20:47:52.239Z,117.50
2018-04-15T20:50:22.064Z,127.25
2018-04-15T20:52:50.928Z,116.75
2018-04-15T20:55:19.691Z,108.28
2018-04-15T20:57:48.685Z,126.95
2018-04-15T21:00:17.146Z,107.40
2018-04-15T21:02:45.594Z,134.05
2018-04-15T21:05:15.075Z,139.60
2018-04-15T21:07:43.477Z,193.98
2018-04-15T21:10:11.894Z,157.52
2018-04-15T21:12:40.503Z,194.52
2018-04-15T21:15:08.870Z,137.48
2018-04-15T21:17:37.285Z,162.27
2018-04-15T21:20:05.856Z,158.23
2018-04-15T21:22:34.419Z,193.07
2018-04-15T21:25:02.824Z,297.92
2018-04-15T21:27:32.538Z,214.05
2018-04-15T21:30:01.237Z,237.52
2018-04-15T21:32:29.676Z,238.07
2018-04-15T21:34:58.356Z,320.42
2018-04-15T21:37:26.797Z,533.50
2018-04-15T21:39:55.312Z,232.48
2018-04-15T21:42:23.998Z,189.87
2018-04-15T21:44:52.504Z,197.37
2018-04-15T21:47:21.086Z,203.32
2018-04-15T21:49:49.712Z,203.75
2018-04-15T21:52:18.194Z,165.60
2018-04-15T21:54:46.716Z,165.15
2018-04-15T21:57:16.033Z,184.70
2018-04-15T21:59:44.396Z,182.75
2018-04-15T22:02:12.773Z,210.30
2018-04-15T22:04:41.767Z,183.27
2018-04-15T22:07:10.345Z,240.93
2018-04-15T22:09:38.820Z,204.75
2018-04-15T22:12:17.140Z,181.93
2018-04-15T22:14:45.557Z,168.37
2018-04-15T22:17:13.898Z,274.08
2018-04-15T22:19:43.085Z,233.63
2018-04-15T22:22:11.459Z,307.25
2018-04-15T22:24:39.918Z,227.75
2018-04-15T22:27:08.308Z,406.08
2018-04-15T22:29:36.660Z,259.73
2018-04-15T22:32:05.132Z,271.13
2018-04-15T22:34:33.652Z,265.65
2018-04-15T22:37:02.059Z,269.25
2018-04-15T22:39:30.571Z,232.60
2018-04-15T22:42:00.461Z,200.82
2018-04-15T22:44:28.941Z,338.00
2018-04-15T22:46:57.362Z,272.60
2018-04-15T22:49:26.838Z,575.58
2018-04-15T22:51:55.223Z,384.95
2018-04-15T22:54:23.612Z,219.52
2018-04-15T22:56:52.139Z,332.12
2018-04-15T22:59:20.772Z,360.42
2018-04-15T23:01:49.321Z,441.73
2018-04-15T23:04:33.212Z,452.75
2018-04-15T23:07:02.053Z,272.20
2018-04-15T23:09:30.485Z,532.28
2018-04-15T23:11:59.018Z,224.30
2018-04-15T23:14:27.502Z,244.82
2018-04-15T23:16:55.898Z,260.60
2018-04-15T23:19:24.440Z,271.58
2018-04-15T23:21:53.009Z,235.27
2018-04-15T23:24:21.711Z,209.30
2018-04-15T23:26:50.216Z,265.00
2018-04-15T23:29:18.681Z,198.02
2018-04-15T23:31:47.116Z,180.77
2018-04-15T23:34:15.909Z,183.50
2018-04-15T23:36:44.265Z,210.80
2018-04-15T23:39:12.636Z,180.68
2018-04-15T23:41:41.077Z,438.08
2018-04-15T23:44:09.467Z,244.75
2018-04-15T23:46:37.847Z,223.60
2018-04-15T23:49:07.691Z,264.45
2018-04-15T23:51:36.043Z,333.15
2018-04-15T23:54:04.413Z,182.00
2018-04-15T23:56:33.206Z,597.20
2018-04-15T23:59:01.611Z,1029.85
